This is the latest recevied weather packets stored in our database for station/object DB0NH-2. If no packets are shown the sender has not sent any weather packets the latest 1 day(s).
| Time | Temp. | Humidity | Pressure | Rain* | Wind** | Luminosity | Snow |
|---|---|---|---|---|---|---|---|
| 1836274421 | 15° C | 76% | 1021.2 hPa | 0 mm | 2.24 m/s, 223° | 0 W/m² | - |
| 1836274270 | 15° C | 77% | 1021.2 hPa | 0 mm | 1.79 m/s, 220° | 0 W/m² | - |
| 1778014567 | 11.67° C | 98% | 1007.3 hPa | 0 mm | 0 m/s | 0 W/m² | - |
| 1778013967 | 11.67° C | 98% | 1007.1 hPa | 0 mm | 0 m/s | 0 W/m² | - |
| 1778013367 | 11.67° C | 98% | 1006.9 hPa | 0.25 mm | 0 m/s | 0 W/m² | - |
| 1778012767 | 11.67° C | 97% | 1006.9 hPa | 0.51 mm | 0.45 m/s, 349° | 0 W/m² | - |
| 1778012167 | 12.22° C | 97% | 1007 hPa | 0.51 mm | 0.45 m/s, 315° | 0 W/m² | - |
| 1778011567 | 12.22° C | 97% | 1007 hPa | 0.51 mm | 0 m/s | 0 W/m² | - |
| 1778010968 | 12.22° C | 97% | 1007 hPa | 0.76 mm | 0.45 m/s, 294° | 0 W/m² | - |
| 1778010368 | 11.67° C | 97% | 1007.1 hPa | 0.76 mm | 0 m/s | 0 W/m² | - |
| 1778009768 | 11.67° C | 97% | 1007.1 hPa | 0.51 mm | 0 m/s | 0 W/m² | - |
| 1778009168 | 11.67° C | 97% | 1007.2 hPa | 0.25 mm | 0 m/s | 0 W/m² | - |
| 1778008568 | 11.67° C | 97% | 1007 hPa | 0.25 mm | 0.45 m/s, 277° | 0 W/m² | - |
| 1778007368 | 11.67° C | 97% | 1006.8 hPa | 0.25 mm | 0 m/s | 0 W/m² | - |
| 1778006768 | 11.67° C | 97% | 1006.8 hPa | 0.25 mm | 0 m/s | 1 W/m² | - |
| 1778006168 | 11.67° C | 96% | 1006.9 hPa | 0.25 mm | 0 m/s | 3 W/m² | - |
| 1778005568 | 11.67° C | 96% | 1006.8 hPa | 0.25 mm | 0 m/s | 4 W/m² | - |
| 1778004968 | 11.67° C | 96% | 1006.7 hPa | 0.51 mm | 0.45 m/s, 278° | 4 W/m² | - |
| 1778004368 | 11.67° C | 96% | 1006.5 hPa | 0.76 mm | 0.45 m/s, 285° | 5 W/m² | - |
| 1778003768 | 12.22° C | 96% | 1006.6 hPa | 1.52 mm | 0 m/s | 13 W/m² | - |
| 1778003168 | 12.22° C | 96% | 1006.4 hPa | 2.54 mm | 0 m/s | 17 W/m² | - |
| 1778002568 | 12.22° C | 96% | 1006.3 hPa | 4.06 mm | 0 m/s | 19 W/m² | - |
| 1778001968 | 12.22° C | 96% | 1006.4 hPa | 5.08 mm | 0 m/s | 22 W/m² | - |
| 1778001368 | 12.22° C | 95% | 1006.6 hPa | 5.33 mm | 0.45 m/s, 322° | 16 W/m² | - |
| 1778000768 | 12.22° C | 95% | 1006.9 hPa | 5.08 mm | 0.45 m/s, 301° | 7 W/m² | - |
* Rain latest hour (hover to see other rain measurements)
** Current wind speed in m/s (hover to see current wind gust speed)